Pisgah, Iowa
Current Conditions -  °F | °C
As of 6:54 AM on Wednesday 22 Oct 2014 (Local Time) from KTQE Reporting Station
Clear Clear  
Wind Chill: 53°   Ceiling: Unl
Heat Index: 53°   Visibility: 10mi
Dew Point: 44°   Wind: 10mph
Humidity: 71%   Direction: 140°SE
Pressure: 30.08"   Gusts: NA
Location:  41.83°N, 95.93°W
Report Text: KTQE 221154Z AUTO 14009KT 10SM CLR 12/07 A3008 RMK AO2 SLP182 T01170067 10139 20117 53002
Loading
Personal Weather Stations






























Interactive Weather Map
Tropical Storm Tracking
New forecast layout! Learn more

10-Day Weather Forecast

Advertisements
Track Severe Weather on mobile